sensor_id;sensor_type;location;lat;lon;timestamp;temperature;humidity
54832;DHT22;40730;53.068;6.572;2023-05-09T00:00:40;14.10;99.90
54832;DHT22;40730;53.068;6.572;2023-05-09T00:03:07;14.10;99.90
54832;DHT22;40730;53.068;6.572;2023-05-09T00:05:32;14.00;99.90
54832;DHT22;40730;53.068;6.572;2023-05-09T00:07:58;14.00;99.90
54832;DHT22;40730;53.068;6.572;2023-05-09T00:10:23;14.20;99.90
54832;DHT22;40730;53.068;6.572;2023-05-09T00:12:49;14.10;99.90
54832;DHT22;40730;53.068;6.572;2023-05-09T00:15:15;14.00;99.90
54832;DHT22;40730;53.068;6.572;2023-05-09T00:17:41;14.00;99.90
54832;DHT22;40730;53.068;6.572;2023-05-09T00:20:07;14.00;99.90
54832;DHT22;40730;53.068;6.572;2023-05-09T00:22:35;14.10;99.90
54832;DHT22;40730;53.068;6.572;2023-05-09T00:25:00;14.10;99.90
54832;DHT22;40730;53.068;6.572;2023-05-09T00:27:26;14.00;99.90
54832;DHT22;40730;53.068;6.572;2023-05-09T00:29:55;14.00;99.90
54832;DHT22;40730;53.068;6.572;2023-05-09T00:32:20;14.00;99.90
54832;DHT22;40730;53.068;6.572;2023-05-09T00:34:46;14.10;99.90
54832;DHT22;40730;53.068;6.572;2023-05-09T00:37:11;14.00;99.90
54832;DHT22;40730;53.068;6.572;2023-05-09T00:39:37;14.00;99.90
54832;DHT22;40730;53.068;6.572;2023-05-09T00:42:03;14.00;99.90
54832;DHT22;40730;53.068;6.572;2023-05-09T00:44:29;14.00;99.90
54832;DHT22;40730;53.068;6.572;2023-05-09T00:46:54;14.00;99.90
54832;DHT22;40730;53.068;6.572;2023-05-09T00:49:20;14.00;99.90
54832;DHT22;40730;53.068;6.572;2023-05-09T00:51:46;14.10;99.90
54832;DHT22;40730;53.068;6.572;2023-05-09T00:54:12;14.10;99.90
54832;DHT22;40730;53.068;6.572;2023-05-09T00:56:38;14.10;99.90
54832;DHT22;40730;53.068;6.572;2023-05-09T00:59:04;14.10;99.90
54832;DHT22;40730;53.068;6.572;2023-05-09T01:01:31;14.10;99.90
54832;DHT22;40730;53.068;6.572;2023-05-09T01:03:57;14.10;99.90
54832;DHT22;40730;53.068;6.572;2023-05-09T01:12:12;14.10;99.90
54832;DHT22;40730;53.068;6.572;2023-05-09T01:31:21;14.10;99.90
54832;DHT22;40730;53.068;6.572;2023-05-09T01:33:53;14.10;99.90
54832;DHT22;40730;53.068;6.572;2023-05-09T01:36:20;14.00;99.90
54832;DHT22;40730;53.068;6.572;2023-05-09T01:38:49;14.10;99.90
54832;DHT22;40730;53.068;6.572;2023-05-09T01:41:17;14.10;99.90
54832;DHT22;40730;53.068;6.572;2023-05-09T01:43:45;14.10;99.90
54832;DHT22;40730;53.068;6.572;2023-05-09T01:46:16;14.00;99.90
54832;DHT22;40730;53.068;6.572;2023-05-09T01:48:42;14.00;99.90
54832;DHT22;40730;53.068;6.572;2023-05-09T01:51:10;14.00;99.90
54832;DHT22;40730;53.068;6.572;2023-05-09T01:53:37;14.20;99.90
54832;DHT22;40730;53.068;6.572;2023-05-09T01:56:06;14.10;99.90
54832;DHT22;40730;53.068;6.572;2023-05-09T01:58:32;14.00;99.90
54832;DHT22;40730;53.068;6.572;2023-05-09T02:00:59;14.00;99.90
54832;DHT22;40730;53.068;6.572;2023-05-09T02:03:26;14.00;99.90
54832;DHT22;40730;53.068;6.572;2023-05-09T02:05:54;14.00;99.90
54832;DHT22;40730;53.068;6.572;2023-05-09T02:08:21;14.00;99.90
54832;DHT22;40730;53.068;6.572;2023-05-09T02:10:48;14.00;99.90
54832;DHT22;40730;53.068;6.572;2023-05-09T02:13:13;13.90;99.90
54832;DHT22;40730;53.068;6.572;2023-05-09T02:15:39;13.90;99.90
54832;DHT22;40730;53.068;6.572;2023-05-09T02:18:05;14.00;99.90
54832;DHT22;40730;53.068;6.572;2023-05-09T02:20:31;14.00;99.90
54832;DHT22;40730;53.068;6.572;2023-05-09T02:23:00;14.00;99.90
54832;DHT22;40730;53.068;6.572;2023-05-09T02:25:26;13.90;99.90
54832;DHT22;40730;53.068;6.572;2023-05-09T02:27:52;13.90;99.90
54832;DHT22;40730;53.068;6.572;2023-05-09T02:30:23;13.90;99.90
54832;DHT22;40730;53.068;6.572;2023-05-09T02:32:58;13.80;99.90
54832;DHT22;40730;53.068;6.572;2023-05-09T02:35:26;13.90;99.90
54832;DHT22;40730;53.068;6.572;2023-05-09T02:37:54;13.90;99.90
54832;DHT22;40730;53.068;6.572;2023-05-09T02:40:21;13.90;99.90
54832;DHT22;40730;53.068;6.572;2023-05-09T02:42:47;14.00;99.90
54832;DHT22;40730;53.068;6.572;2023-05-09T02:45:12;14.00;99.90
54832;DHT22;40730;53.068;6.572;2023-05-09T02:47:38;14.00;99.90
54832;DHT22;40730;53.068;6.572;2023-05-09T02:50:04;14.00;99.90
54832;DHT22;40730;53.068;6.572;2023-05-09T02:52:30;13.90;99.90
54832;DHT22;40730;53.068;6.572;2023-05-09T02:54:56;13.90;99.90
54832;DHT22;40730;53.068;6.572;2023-05-09T02:57:22;13.90;99.90
54832;DHT22;40730;53.068;6.572;2023-05-09T02:59:47;14.00;99.90
54832;DHT22;40730;53.068;6.572;2023-05-09T03:02:13;13.90;99.90
54832;DHT22;40730;53.068;6.572;2023-05-09T03:04:38;13.90;99.90
54832;DHT22;40730;53.068;6.572;2023-05-09T03:07:04;13.90;99.90
54832;DHT22;40730;53.068;6.572;2023-05-09T03:09:30;14.00;99.90
54832;DHT22;40730;53.068;6.572;2023-05-09T03:11:55;13.90;99.90
54832;DHT22;40730;53.068;6.572;2023-05-09T03:14:21;13.90;99.90
54832;DHT22;40730;53.068;6.572;2023-05-09T03:16:47;14.00;99.90
54832;DHT22;40730;53.068;6.572;2023-05-09T03:19:12;13.90;99.90
54832;DHT22;40730;53.068;6.572;2023-05-09T03:21:38;14.10;99.90
54832;DHT22;40730;53.068;6.572;2023-05-09T03:24:05;14.00;99.90
54832;DHT22;40730;53.068;6.572;2023-05-09T03:26:31;14.10;99.90
54832;DHT22;40730;53.068;6.572;2023-05-09T03:28:57;14.10;99.90
54832;DHT22;40730;53.068;6.572;2023-05-09T03:31:23;14.10;99.90
54832;DHT22;40730;53.068;6.572;2023-05-09T03:33:48;14.10;99.90
54832;DHT22;40730;53.068;6.572;2023-05-09T03:36:14;14.10;99.90
54832;DHT22;40730;53.068;6.572;2023-05-09T03:38:40;14.10;99.90
54832;DHT22;40730;53.068;6.572;2023-05-09T03:41:05;14.10;99.90
54832;DHT22;40730;53.068;6.572;2023-05-09T03:43:31;14.10;99.90
54832;DHT22;40730;53.068;6.572;2023-05-09T03:45:56;14.10;99.90
54832;DHT22;40730;53.068;6.572;2023-05-09T03:48:22;14.10;99.90
54832;DHT22;40730;53.068;6.572;2023-05-09T03:50:47;14.10;99.90
54832;DHT22;40730;53.068;6.572;2023-05-09T03:53:13;14.20;99.90
54832;DHT22;40730;53.068;6.572;2023-05-09T03:55:39;14.10;99.90
54832;DHT22;40730;53.068;6.572;2023-05-09T03:58:05;14.10;99.90
54832;DHT22;40730;53.068;6.572;2023-05-09T04:00:31;14.20;99.90
54832;DHT22;40730;53.068;6.572;2023-05-09T04:02:56;14.20;99.90
54832;DHT22;40730;53.068;6.572;2023-05-09T04:05:22;14.10;99.90
54832;DHT22;40730;53.068;6.572;2023-05-09T04:07:48;14.20;99.90
54832;DHT22;40730;53.068;6.572;2023-05-09T04:10:14;14.20;99.90
54832;DHT22;40730;53.068;6.572;2023-05-09T04:12:39;14.20;99.90
54832;DHT22;40730;53.068;6.572;2023-05-09T04:15:05;14.20;99.90
54832;DHT22;40730;53.068;6.572;2023-05-09T04:17:31;14.20;99.90
54832;DHT22;40730;53.068;6.572;2023-05-09T04:19:57;14.30;99.90
54832;DHT22;40730;53.068;6.572;2023-05-09T04:22:22;14.30;99.90
54832;DHT22;40730;53.068;6.572;2023-05-09T04:24:48;14.30;99.90
54832;DHT22;40730;53.068;6.572;2023-05-09T04:27:13;14.30;99.90
54832;DHT22;40730;53.068;6.572;2023-05-09T04:29:39;14.30;99.90
54832;DHT22;40730;53.068;6.572;2023-05-09T04:32:05;14.30;99.90
54832;DHT22;40730;53.068;6.572;2023-05-09T04:34:31;14.30;99.90
54832;DHT22;40730;53.068;6.572;2023-05-09T04:36:56;14.40;99.90
54832;DHT22;40730;53.068;6.572;2023-05-09T04:39:22;14.40;99.90
54832;DHT22;40730;53.068;6.572;2023-05-09T04:41:48;14.40;99.90
54832;DHT22;40730;53.068;6.572;2023-05-09T04:44:14;14.40;99.90
54832;DHT22;40730;53.068;6.572;2023-05-09T04:46:40;14.40;99.90
54832;DHT22;40730;53.068;6.572;2023-05-09T04:49:05;14.50;99.90
54832;DHT22;40730;53.068;6.572;2023-05-09T04:51:31;14.50;99.90
54832;DHT22;40730;53.068;6.572;2023-05-09T04:53:57;14.50;99.90
54832;DHT22;40730;53.068;6.572;2023-05-09T04:56:22;14.50;99.90
54832;DHT22;40730;53.068;6.572;2023-05-09T04:58:48;14.50;99.90
54832;DHT22;40730;53.068;6.572;2023-05-09T05:01:14;14.60;99.90
54832;DHT22;40730;53.068;6.572;2023-05-09T05:03:41;14.60;99.90
54832;DHT22;40730;53.068;6.572;2023-05-09T05:06:06;14.70;99.90
54832;DHT22;40730;53.068;6.572;2023-05-09T05:08:32;14.70;99.90
54832;DHT22;40730;53.068;6.572;2023-05-09T05:10:57;14.70;99.90
54832;DHT22;40730;53.068;6.572;2023-05-09T05:13:23;14.70;99.90
54832;DHT22;40730;53.068;6.572;2023-05-09T05:15:49;14.80;99.90
54832;DHT22;40730;53.068;6.572;2023-05-09T05:18:14;14.80;99.90
54832;DHT22;40730;53.068;6.572;2023-05-09T05:20:40;14.90;99.90
54832;DHT22;40730;53.068;6.572;2023-05-09T05:23:06;15.00;99.90
54832;DHT22;40730;53.068;6.572;2023-05-09T05:25:32;14.90;99.90
54832;DHT22;40730;53.068;6.572;2023-05-09T05:27:58;14.90;99.90
54832;DHT22;40730;53.068;6.572;2023-05-09T05:30:23;15.00;99.90
54832;DHT22;40730;53.068;6.572;2023-05-09T05:32:49;15.00;99.90
54832;DHT22;40730;53.068;6.572;2023-05-09T05:35:14;15.00;99.90
54832;DHT22;40730;53.068;6.572;2023-05-09T05:37:41;15.10;99.90
54832;DHT22;40730;53.068;6.572;2023-05-09T05:40:07;15.00;99.90
54832;DHT22;40730;53.068;6.572;2023-05-09T05:42:33;15.00;99.90
54832;DHT22;40730;53.068;6.572;2023-05-09T05:44:58;15.10;99.90
54832;DHT22;40730;53.068;6.572;2023-05-09T05:47:31;15.10;99.90
54832;DHT22;40730;53.068;6.572;2023-05-09T05:49:58;15.10;99.90
54832;DHT22;40730;53.068;6.572;2023-05-09T05:52:24;15.10;99.90
54832;DHT22;40730;53.068;6.572;2023-05-09T05:54:51;15.10;99.90
54832;DHT22;40730;53.068;6.572;2023-05-09T05:57:17;15.10;99.90
54832;DHT22;40730;53.068;6.572;2023-05-09T05:59:43;15.20;99.90
54832;DHT22;40730;53.068;6.572;2023-05-09T06:02:08;15.40;99.90
54832;DHT22;40730;53.068;6.572;2023-05-09T06:04:34;15.20;99.90
54832;DHT22;40730;53.068;6.572;2023-05-09T06:06:59;15.20;99.90
54832;DHT22;40730;53.068;6.572;2023-05-09T06:09:25;15.30;99.90
54832;DHT22;40730;53.068;6.572;2023-05-09T06:11:50;15.40;99.90
54832;DHT22;40730;53.068;6.572;2023-05-09T06:14:16;15.50;99.90
54832;DHT22;40730;53.068;6.572;2023-05-09T06:16:42;15.50;99.90
54832;DHT22;40730;53.068;6.572;2023-05-09T06:19:07;15.40;99.90
54832;DHT22;40730;53.068;6.572;2023-05-09T06:21:33;15.30;99.90
54832;DHT22;40730;53.068;6.572;2023-05-09T06:23:58;15.40;99.90
54832;DHT22;40730;53.068;6.572;2023-05-09T06:26:26;15.40;99.90
54832;DHT22;40730;53.068;6.572;2023-05-09T06:28:52;15.40;99.90
54832;DHT22;40730;53.068;6.572;2023-05-09T06:31:17;15.40;99.90
54832;DHT22;40730;53.068;6.572;2023-05-09T06:33:43;15.40;99.90
54832;DHT22;40730;53.068;6.572;2023-05-09T06:36:09;15.40;99.90
54832;DHT22;40730;53.068;6.572;2023-05-09T06:38:35;15.40;99.90
54832;DHT22;40730;53.068;6.572;2023-05-09T06:41:00;15.50;99.90
54832;DHT22;40730;53.068;6.572;2023-05-09T06:43:26;15.40;99.90
54832;DHT22;40730;53.068;6.572;2023-05-09T06:45:51;15.30;99.90
54832;DHT22;40730;53.068;6.572;2023-05-09T06:48:17;15.40;99.90
54832;DHT22;40730;53.068;6.572;2023-05-09T06:50:43;15.40;99.90
54832;DHT22;40730;53.068;6.572;2023-05-09T06:53:08;15.50;99.90
54832;DHT22;40730;53.068;6.572;2023-05-09T06:55:34;15.40;99.90
54832;DHT22;40730;53.068;6.572;2023-05-09T06:58:00;15.50;99.90
54832;DHT22;40730;53.068;6.572;2023-05-09T07:00:25;15.40;99.90
54832;DHT22;40730;53.068;6.572;2023-05-09T07:02:51;15.40;99.90
54832;DHT22;40730;53.068;6.572;2023-05-09T07:05:16;15.40;99.90
54832;DHT22;40730;53.068;6.572;2023-05-09T07:07:42;15.50;99.90
54832;DHT22;40730;53.068;6.572;2023-05-09T07:10:08;15.40;99.90
54832;DHT22;40730;53.068;6.572;2023-05-09T07:12:34;15.40;99.90
54832;DHT22;40730;53.068;6.572;2023-05-09T07:14:59;15.40;99.90
54832;DHT22;40730;53.068;6.572;2023-05-09T07:17:25;15.40;99.90
54832;DHT22;40730;53.068;6.572;2023-05-09T07:19:51;15.50;99.90
54832;DHT22;40730;53.068;6.572;2023-05-09T07:22:16;15.50;99.90
54832;DHT22;40730;53.068;6.572;2023-05-09T07:24:42;15.50;99.90
54832;DHT22;40730;53.068;6.572;2023-05-09T07:27:10;15.50;99.90
54832;DHT22;40730;53.068;6.572;2023-05-09T07:29:36;15.50;99.90
54832;DHT22;40730;53.068;6.572;2023-05-09T07:32:01;15.50;99.90
54832;DHT22;40730;53.068;6.572;2023-05-09T07:34:27;15.60;99.90
54832;DHT22;40730;53.068;6.572;2023-05-09T07:36:53;15.60;99.90
54832;DHT22;40730;53.068;6.572;2023-05-09T07:39:18;15.60;99.90
54832;DHT22;40730;53.068;6.572;2023-05-09T07:41:44;15.80;99.90
54832;DHT22;40730;53.068;6.572;2023-05-09T07:44:09;15.70;99.90
54832;DHT22;40730;53.068;6.572;2023-05-09T07:46:35;15.70;99.90
54832;DHT22;40730;53.068;6.572;2023-05-09T07:49:06;15.70;99.90
54832;DHT22;40730;53.068;6.572;2023-05-09T07:51:32;15.80;99.90
54832;DHT22;40730;53.068;6.572;2023-05-09T07:53:57;15.80;99.90
54832;DHT22;40730;53.068;6.572;2023-05-09T07:56:23;15.80;99.90
54832;DHT22;40730;53.068;6.572;2023-05-09T07:58:49;15.80;99.90
54832;DHT22;40730;53.068;6.572;2023-05-09T08:01:14;15.90;99.90
54832;DHT22;40730;53.068;6.572;2023-05-09T08:03:40;16.00;99.90
54832;DHT22;40730;53.068;6.572;2023-05-09T08:06:06;16.00;99.90
54832;DHT22;40730;53.068;6.572;2023-05-09T08:08:32;16.30;99.90
54832;DHT22;40730;53.068;6.572;2023-05-09T08:10:57;16.10;99.90
54832;DHT22;40730;53.068;6.572;2023-05-09T08:13:23;16.10;99.90
54832;DHT22;40730;53.068;6.572;2023-05-09T08:15:49;16.20;99.90
54832;DHT22;40730;53.068;6.572;2023-05-09T08:18:15;16.30;99.90
54832;DHT22;40730;53.068;6.572;2023-05-09T08:20:40;16.60;99.90
54832;DHT22;40730;53.068;6.572;2023-05-09T08:23:06;16.40;99.90
54832;DHT22;40730;53.068;6.572;2023-05-09T08:25:32;16.50;99.90
54832;DHT22;40730;53.068;6.572;2023-05-09T08:27:58;16.50;99.90
54832;DHT22;40730;53.068;6.572;2023-05-09T08:30:23;16.40;99.90
54832;DHT22;40730;53.068;6.572;2023-05-09T08:32:49;16.40;99.90
54832;DHT22;40730;53.068;6.572;2023-05-09T08:35:15;16.40;99.90
54832;DHT22;40730;53.068;6.572;2023-05-09T08:37:40;16.40;99.90
54832;DHT22;40730;53.068;6.572;2023-05-09T08:40:06;16.60;99.90
54832;DHT22;40730;53.068;6.572;2023-05-09T08:42:33;16.60;99.90
54832;DHT22;40730;53.068;6.572;2023-05-09T08:45:00;16.60;99.90
54832;DHT22;40730;53.068;6.572;2023-05-09T08:47:34;16.60;99.90
54832;DHT22;40730;53.068;6.572;2023-05-09T08:50:01;16.70;99.90
54832;DHT22;40730;53.068;6.572;2023-05-09T08:52:30;16.80;99.90
54832;DHT22;40730;53.068;6.572;2023-05-09T08:54:56;16.90;99.90
54832;DHT22;40730;53.068;6.572;2023-05-09T08:57:22;16.90;99.90
54832;DHT22;40730;53.068;6.572;2023-05-09T08:59:48;17.00;99.90
54832;DHT22;40730;53.068;6.572;2023-05-09T09:02:14;17.10;99.90
54832;DHT22;40730;53.068;6.572;2023-05-09T09:04:40;17.10;99.90
54832;DHT22;40730;53.068;6.572;2023-05-09T09:07:07;17.10;99.90
54832;DHT22;40730;53.068;6.572;2023-05-09T09:09:35;17.00;99.90
54832;DHT22;40730;53.068;6.572;2023-05-09T09:12:05;17.10;99.90
54832;DHT22;40730;53.068;6.572;2023-05-09T09:14:37;17.20;99.90
54832;DHT22;40730;53.068;6.572;2023-05-09T09:17:04;17.30;99.90
54832;DHT22;40730;53.068;6.572;2023-05-09T09:19:33;17.40;99.90
54832;DHT22;40730;53.068;6.572;2023-05-09T09:22:02;17.50;99.90
54832;DHT22;40730;53.068;6.572;2023-05-09T09:24:29;17.60;99.90
54832;DHT22;40730;53.068;6.572;2023-05-09T09:26:56;17.60;99.90
54832;DHT22;40730;53.068;6.572;2023-05-09T09:29:22;17.70;99.90
54832;DHT22;40730;53.068;6.572;2023-05-09T09:31:52;17.70;99.90
54832;DHT22;40730;53.068;6.572;2023-05-09T09:34:20;17.70;99.90
54832;DHT22;40730;53.068;6.572;2023-05-09T09:36:46;17.60;99.90
54832;DHT22;40730;53.068;6.572;2023-05-09T09:39:13;17.50;99.90
54832;DHT22;40730;53.068;6.572;2023-05-09T09:41:39;17.50;99.90
54832;DHT22;40730;53.068;6.572;2023-05-09T09:44:09;17.50;99.90
54832;DHT22;40730;53.068;6.572;2023-05-09T09:46:53;17.60;99.90
54832;DHT22;40730;53.068;6.572;2023-05-09T09:49:24;17.50;99.90
54832;DHT22;40730;53.068;6.572;2023-05-09T09:51:54;17.60;99.90
54832;DHT22;40730;53.068;6.572;2023-05-09T09:54:21;17.60;99.90
54832;DHT22;40730;53.068;6.572;2023-05-09T09:56:49;17.60;99.90
54832;DHT22;40730;53.068;6.572;2023-05-09T09:59:23;17.50;99.90
54832;DHT22;40730;53.068;6.572;2023-05-09T10:02:04;17.50;99.90
54832;DHT22;40730;53.068;6.572;2023-05-09T10:04:33;17.50;99.90
54832;DHT22;40730;53.068;6.572;2023-05-09T10:07:03;17.60;99.90
54832;DHT22;40730;53.068;6.572;2023-05-09T10:09:31;17.90;99.90
54832;DHT22;40730;53.068;6.572;2023-05-09T10:12:01;18.10;99.90
54832;DHT22;40730;53.068;6.572;2023-05-09T10:14:30;18.20;99.90
54832;DHT22;40730;53.068;6.572;2023-05-09T10:16:56;18.40;99.90
54832;DHT22;40730;53.068;6.572;2023-05-09T10:19:23;18.70;99.90
54832;DHT22;40730;53.068;6.572;2023-05-09T10:21:51;18.70;99.90
54832;DHT22;40730;53.068;6.572;2023-05-09T10:24:41;18.70;99.90
54832;DHT22;40730;53.068;6.572;2023-05-09T10:27:10;18.80;99.90
54832;DHT22;40730;53.068;6.572;2023-05-09T10:29:48;18.90;99.90
54832;DHT22;40730;53.068;6.572;2023-05-09T10:32:18;18.80;99.90
54832;DHT22;40730;53.068;6.572;2023-05-09T10:34:50;18.70;99.90
54832;DHT22;40730;53.068;6.572;2023-05-09T10:37:18;18.70;99.90
54832;DHT22;40730;53.068;6.572;2023-05-09T10:39:44;18.80;99.90
54832;DHT22;40730;53.068;6.572;2023-05-09T10:42:12;18.80;99.90
54832;DHT22;40730;53.068;6.572;2023-05-09T10:44:38;19.00;99.90
54832;DHT22;40730;53.068;6.572;2023-05-09T10:47:04;18.90;99.90
54832;DHT22;40730;53.068;6.572;2023-05-09T10:49:30;19.00;99.90
54832;DHT22;40730;53.068;6.572;2023-05-09T10:51:56;19.00;99.90
54832;DHT22;40730;53.068;6.572;2023-05-09T10:54:27;18.90;99.90
54832;DHT22;40730;53.068;6.572;2023-05-09T10:56:54;18.90;99.90
54832;DHT22;40730;53.068;6.572;2023-05-09T10:59:41;19.00;99.90
54832;DHT22;40730;53.068;6.572;2023-05-09T11:02:15;19.00;99.90
54832;DHT22;40730;53.068;6.572;2023-05-09T11:04:43;18.90;99.90
54832;DHT22;40730;53.068;6.572;2023-05-09T11:07:24;18.80;99.90
54832;DHT22;40730;53.068;6.572;2023-05-09T11:12:32;18.80;99.90
54832;DHT22;40730;53.068;6.572;2023-05-09T11:15:06;18.80;99.90
54832;DHT22;40730;53.068;6.572;2023-05-09T11:17:36;18.70;99.90
54832;DHT22;40730;53.068;6.572;2023-05-09T11:20:06;18.70;99.90
54832;DHT22;40730;53.068;6.572;2023-05-09T11:22:41;18.80;99.90
54832;DHT22;40730;53.068;6.572;2023-05-09T11:25:12;18.80;99.90
54832;DHT22;40730;53.068;6.572;2023-05-09T11:27:42;18.90;99.90
54832;DHT22;40730;53.068;6.572;2023-05-09T11:30:09;18.80;99.90
54832;DHT22;40730;53.068;6.572;2023-05-09T11:32:51;18.90;99.90
54832;DHT22;40730;53.068;6.572;2023-05-09T11:35:23;19.00;99.90
54832;DHT22;40730;53.068;6.572;2023-05-09T11:37:52;19.00;99.90
54832;DHT22;40730;53.068;6.572;2023-05-09T11:40:21;19.10;99.90
54832;DHT22;40730;53.068;6.572;2023-05-09T11:42:49;19.20;99.90
54832;DHT22;40730;53.068;6.572;2023-05-09T11:45:15;19.30;99.90
54832;DHT22;40730;53.068;6.572;2023-05-09T11:47:41;19.30;99.90
54832;DHT22;40730;53.068;6.572;2023-05-09T11:50:11;19.40;99.90
54832;DHT22;40730;53.068;6.572;2023-05-09T11:52:38;19.50;99.90
54832;DHT22;40730;53.068;6.572;2023-05-09T11:55:17;19.50;99.90
54832;DHT22;40730;53.068;6.572;2023-05-09T11:57:46;19.50;99.90
54832;DHT22;40730;53.068;6.572;2023-05-09T12:00:19;19.50;99.90
54832;DHT22;40730;53.068;6.572;2023-05-09T12:02:45;19.60;99.90
54832;DHT22;40730;53.068;6.572;2023-05-09T12:05:16;19.50;99.90
54832;DHT22;40730;53.068;6.572;2023-05-09T12:07:43;19.60;99.90
54832;DHT22;40730;53.068;6.572;2023-05-09T12:10:11;19.60;99.90
54832;DHT22;40730;53.068;6.572;2023-05-09T12:12:48;19.60;99.90
54832;DHT22;40730;53.068;6.572;2023-05-09T12:15:14;19.60;99.90
54832;DHT22;40730;53.068;6.572;2023-05-09T12:17:41;19.70;99.90
54832;DHT22;40730;53.068;6.572;2023-05-09T12:20:08;19.70;99.90
54832;DHT22;40730;53.068;6.572;2023-05-09T12:22:35;19.80;99.90
54832;DHT22;40730;53.068;6.572;2023-05-09T12:25:05;19.80;99.90
54832;DHT22;40730;53.068;6.572;2023-05-09T12:27:32;19.80;99.90
54832;DHT22;40730;53.068;6.572;2023-05-09T12:30:04;19.90;99.90
54832;DHT22;40730;53.068;6.572;2023-05-09T12:32:33;19.80;99.90
54832;DHT22;40730;53.068;6.572;2023-05-09T12:35:01;19.80;99.90
54832;DHT22;40730;53.068;6.572;2023-05-09T12:37:30;19.80;99.90
54832;DHT22;40730;53.068;6.572;2023-05-09T12:40:08;19.80;99.90
54832;DHT22;40730;53.068;6.572;2023-05-09T12:42:38;19.80;99.90
54832;DHT22;40730;53.068;6.572;2023-05-09T12:45:06;19.70;99.90
54832;DHT22;40730;53.068;6.572;2023-05-09T12:47:32;19.70;99.90
54832;DHT22;40730;53.068;6.572;2023-05-09T12:49:59;19.60;99.90
54832;DHT22;40730;53.068;6.572;2023-05-09T12:52:31;19.70;99.90
54832;DHT22;40730;53.068;6.572;2023-05-09T12:55:11;19.70;99.90
54832;DHT22;40730;53.068;6.572;2023-05-09T12:57:39;19.70;99.90
54832;DHT22;40730;53.068;6.572;2023-05-09T13:00:07;19.70;99.90
54832;DHT22;40730;53.068;6.572;2023-05-09T13:02:39;19.70;99.90
54832;DHT22;40730;53.068;6.572;2023-05-09T13:07:39;19.60;99.90
54832;DHT22;40730;53.068;6.572;2023-05-09T13:10:16;19.50;99.90
54832;DHT22;40730;53.068;6.572;2023-05-09T13:12:46;19.40;99.90
54832;DHT22;40730;53.068;6.572;2023-05-09T13:15:17;19.30;99.90
54832;DHT22;40730;53.068;6.572;2023-05-09T13:17:50;19.20;99.90
54832;DHT22;40730;53.068;6.572;2023-05-09T13:20:17;19.10;99.90
54832;DHT22;40730;53.068;6.572;2023-05-09T13:22:43;19.00;99.90
54832;DHT22;40730;53.068;6.572;2023-05-09T13:25:10;19.00;99.90
54832;DHT22;40730;53.068;6.572;2023-05-09T13:27:36;18.90;99.90
54832;DHT22;40730;53.068;6.572;2023-05-09T13:30:03;18.80;99.90
54832;DHT22;40730;53.068;6.572;2023-05-09T13:32:30;18.80;99.90
54832;DHT22;40730;53.068;6.572;2023-05-09T13:34:55;18.70;99.90
54832;DHT22;40730;53.068;6.572;2023-05-09T13:37:21;18.60;99.90
54832;DHT22;40730;53.068;6.572;2023-05-09T13:39:47;18.50;99.90
54832;DHT22;40730;53.068;6.572;2023-05-09T13:42:13;18.40;99.90
54832;DHT22;40730;53.068;6.572;2023-05-09T13:44:39;18.10;99.90
54832;DHT22;40730;53.068;6.572;2023-05-09T13:47:04;18.00;99.90
54832;DHT22;40730;53.068;6.572;2023-05-09T13:49:32;18.00;99.90
54832;DHT22;40730;53.068;6.572;2023-05-09T13:51:58;17.90;99.90
54832;DHT22;40730;53.068;6.572;2023-05-09T13:54:24;17.80;99.90
54832;DHT22;40730;53.068;6.572;2023-05-09T13:56:49;17.70;99.90
54832;DHT22;40730;53.068;6.572;2023-05-09T13:59:18;17.60;99.90
54832;DHT22;40730;53.068;6.572;2023-05-09T14:01:43;17.50;99.90
54832;DHT22;40730;53.068;6.572;2023-05-09T14:04:10;17.40;99.90
54832;DHT22;40730;53.068;6.572;2023-05-09T14:06:36;17.40;99.90
54832;DHT22;40730;53.068;6.572;2023-05-09T14:09:02;17.30;99.90
54832;DHT22;40730;53.068;6.572;2023-05-09T14:11:28;17.30;99.90
54832;DHT22;40730;53.068;6.572;2023-05-09T14:13:54;17.30;99.90
54832;DHT22;40730;53.068;6.572;2023-05-09T14:16:19;17.20;99.90
54832;DHT22;40730;53.068;6.572;2023-05-09T14:18:46;17.30;99.90
54832;DHT22;40730;53.068;6.572;2023-05-09T14:21:11;17.30;99.90
54832;DHT22;40730;53.068;6.572;2023-05-09T14:23:37;17.30;99.90
54832;DHT22;40730;53.068;6.572;2023-05-09T14:26:03;17.30;99.90
54832;DHT22;40730;53.068;6.572;2023-05-09T14:28:28;17.20;99.90
54832;DHT22;40730;53.068;6.572;2023-05-09T14:30:54;17.20;99.90
54832;DHT22;40730;53.068;6.572;2023-05-09T14:33:19;17.10;99.90
54832;DHT22;40730;53.068;6.572;2023-05-09T14:35:45;17.20;99.90
54832;DHT22;40730;53.068;6.572;2023-05-09T14:38:11;17.10;99.90
54832;DHT22;40730;53.068;6.572;2023-05-09T14:40:38;17.00;99.90
54832;DHT22;40730;53.068;6.572;2023-05-09T14:43:03;17.00;99.90
54832;DHT22;40730;53.068;6.572;2023-05-09T14:45:31;17.00;99.90
54832;DHT22;40730;53.068;6.572;2023-05-09T14:47:57;16.90;99.90
54832;DHT22;40730;53.068;6.572;2023-05-09T14:50:24;16.90;99.90
54832;DHT22;40730;53.068;6.572;2023-05-09T14:52:50;16.80;99.90
54832;DHT22;40730;53.068;6.572;2023-05-09T14:55:18;16.70;99.90
54832;DHT22;40730;53.068;6.572;2023-05-09T14:57:45;16.70;99.90
54832;DHT22;40730;53.068;6.572;2023-05-09T15:00:11;16.60;99.90
54832;DHT22;40730;53.068;6.572;2023-05-09T15:02:38;16.60;99.90
54832;DHT22;40730;53.068;6.572;2023-05-09T15:05:04;16.60;99.90
54832;DHT22;40730;53.068;6.572;2023-05-09T15:07:30;16.60;99.90
54832;DHT22;40730;53.068;6.572;2023-05-09T15:09:56;16.60;99.90
54832;DHT22;40730;53.068;6.572;2023-05-09T15:12:21;16.60;99.90
54832;DHT22;40730;53.068;6.572;2023-05-09T15:14:47;16.60;99.90
54832;DHT22;40730;53.068;6.572;2023-05-09T15:17:13;16.60;99.90
54832;DHT22;40730;53.068;6.572;2023-05-09T15:19:39;16.50;99.90
54832;DHT22;40730;53.068;6.572;2023-05-09T15:22:06;16.60;99.90
54832;DHT22;40730;53.068;6.572;2023-05-09T15:24:33;16.50;99.90
54832;DHT22;40730;53.068;6.572;2023-05-09T15:26:59;16.50;99.90
54832;DHT22;40730;53.068;6.572;2023-05-09T15:29:25;16.50;99.90
54832;DHT22;40730;53.068;6.572;2023-05-09T15:31:51;16.40;99.90
54832;DHT22;40730;53.068;6.572;2023-05-09T15:34:18;16.50;99.90
54832;DHT22;40730;53.068;6.572;2023-05-09T15:36:43;16.40;99.90
54832;DHT22;40730;53.068;6.572;2023-05-09T15:39:09;16.30;99.90
54832;DHT22;40730;53.068;6.572;2023-05-09T15:41:35;16.40;99.90
54832;DHT22;40730;53.068;6.572;2023-05-09T15:44:00;16.30;99.90
54832;DHT22;40730;53.068;6.572;2023-05-09T15:46:26;16.40;99.90
54832;DHT22;40730;53.068;6.572;2023-05-09T15:48:52;16.20;99.90
54832;DHT22;40730;53.068;6.572;2023-05-09T15:51:18;16.20;99.90
54832;DHT22;40730;53.068;6.572;2023-05-09T15:53:43;16.20;99.90
54832;DHT22;40730;53.068;6.572;2023-05-09T15:56:09;16.10;99.90